Buoy 42514

sailwx.info

Track history (hours):
 
Tides and Currents Weather Stations Pressure Air Temp Water Temp Dewpoint Dewpoint Depression Visibility Wind Speed Wind Dir Waves Ship Positions

Drifting buoy 42514

Last reported at 2016-Apr-04 19:10 UTC. Time now 2016-Dec-10 03:14 UTC.
Position N 29°53' W 088°50'.
Warning: this ship's position is months out of date.

Barometer 1032.0 mb
Water temperature 22.7 ° C

Date/timePositionNaut miles runAvg speedWind from/ knotsBaromVisibWave heightAir tempDewpointWater temp
2016-Apr-04 19:10N 29°53' W 088°50'0 0.1 1032.0 22.7
2016-Apr-04 18:10N 29°53' W 088°50'0 0.1 1029.2 21.9
2016-Apr-04 17:10N 29°53' W 088°50'0 0.0 1026.5 21.3
2016-Apr-04 15:10N 29°53' W 088°50'0 0.1 1023.8 21.1
2016-Apr-04 13:10N 29°53' W 088°49'0 0.2 1023.0 19.4
2016-Apr-04 12:10N 29°53' W 088°50'0 0.1 1022.2 16.5
2016-Apr-04 11:10N 29°53' W 088°50'0 0.1 1021.6 15.5
2016-Apr-04 08:10N 29°53' W 088°49'0 0.0 1021.2 15.7
2016-Apr-04 03:10N 29°53' W 088°49'0 0.1 1021.6 16.6
2016-Apr-04 01:10N 29°53' W 088°50'0 0.2 1021.4 17.0
2016-Apr-04 00:10N 29°53' W 088°50'0 0.1 1023.8 18.4
2016-Apr-03 23:10N 29°53' W 088°50'0 0.1 1027.2 20.1
2016-Apr-03 21:10N 29°53' W 088°50'0 0.2 1037.0 20.9
2016-Apr-03 19:10N 29°53' W 088°50'0 0.0 1037.5 20.8
2016-Apr-03 15:10N 29°53' W 088°50'0 0.1 1023.9 20.1
2016-Apr-03 14:10N 29°53' W 088°50'0 0.0 1023.1 19.4
2016-Apr-03 13:10N 29°53' W 088°50'0 0.2 1022.7 18.1
2016-Apr-03 12:10N 29°53' W 088°49'0 0.2 1022.4 13.7
2016-Apr-03 11:10N 29°53' W 088°50'0 0.0 1022.0 12.9
2016-Apr-03 10:10N 29°53' W 088°50'0 0.0 1021.4 12.4
2016-Apr-03 08:10N 29°53' W 088°50'0 0.0 1021.2 13.0
2016-Apr-03 03:10N 29°53' W 088°50'0 0.2 1020.4 16.0
2016-Apr-03 02:10N 29°53' W 088°50'0 0.1 1020.1 16.6
2016-Apr-03 00:10N 29°53' W 088°49'1 0.6 1022.3 18.4
2016-Apr-02 23:10N 29°53' W 088°50'1 0.5 1024.5 19.5
2016-Apr-02 22:10N 29°53' W 088°49'0 0.2 1025.1 18.3
2016-Apr-02 20:10N 29°53' W 088°49'0 0.2 1025.3 20.2
2016-Apr-02 18:10N 29°53' W 088°50'0 0.1 1024.7 18.9
2016-Apr-02 16:10N 29°53' W 088°50'0 0.0 1021.7 17.9
2016-Apr-02 15:10N 29°53' W 088°50'0 0.0 1020.2 17.7
2016-Apr-02 14:10N 29°53' W 088°50'0 0.2 1019.9 16.6
2016-Apr-02 13:10N 29°53' W 088°50'0 0.2 1018.1 15.0
2016-Apr-02 12:10N 29°53' W 088°49'0 0.1 1016.9 13.2
2016-Apr-02 11:10N 29°53' W 088°50'0 0.0 1015.5 12.9
2016-Apr-02 10:10N 29°53' W 088°50'0 0.1 1013.7 12.1
2016-Apr-02 08:10N 29°53' W 088°50'0 0.0 1012.6 15.3
2016-Apr-02 02:10N 29°53' W 088°50'0 0.0 1010.5 16.0
2016-Apr-02 00:10N 29°53' W 088°50'0 0.1 1008.5 17.8
2016-Apr-01 23:10N 29°53' W 088°50'1 0.4 1010.3 19.8
2016-Apr-01 20:10N 29°52' W 088°49'1 1.0 1008.4 20.2
2016-Apr-01 19:10N 29°52' W 088°48'3 1.1 1009.6 20.5
2016-Apr-01 16:10N 29°48' W 088°48'1 0.6 1010.9 20.3
2016-Apr-01 14:10N 29°47' W 088°48'0 0.2 1009.6 20.3
2016-Apr-01 13:10N 29°47' W 088°48'1 0.8 1009.0 20.3
2016-Apr-01 12:10N 29°47' W 088°47'1 0.6 1008.8 20.3
2016-Apr-01 11:10N 29°46' W 088°48'1 0.4 1009.2 20.3
2016-Apr-01 08:10N 29°45' W 088°48'2 0.6 1009.3 20.3
2016-Apr-01 04:10N 29°43' W 088°50'0 0.0 1009.8 20.7
2016-Apr-01 03:10N 29°43' W 088°50'1 0.5 1009.0 20.7
2016-Apr-01 02:10N 29°43' W 088°50'1 0.7 1009.0 21.0
2016-Apr-01 01:10N 29°43' W 088°50'3 1.3 1008.3 21.3
2016-Mar-31 23:10N 29°41' W 088°53'1 1.1 1010.0 21.5
2016-Mar-31 22:10N 29°41' W 088°54'2 0.8 1012.4 21.3
2016-Mar-31 20:10N 29°40' W 088°55'2 2.4 1014.7 21.3
2016-Mar-31 19:10N 29°38' W 088°57'3 1.1 1015.0 21.0
2016-Mar-31 16:10N 29°35' W 088°58'1 0.8 1014.4 20.2
2016-Mar-31 15:10N 29°34' W 088°58'2 1.9 1013.8 20.0
2016-Mar-31 14:10N 29°32' W 088°59'1 1.1 1012.7 19.7
2016-Mar-31 13:10N 29°31' W 088°60'1 0.7 1011.5 19.5
2016-Mar-31 12:10N 29°31' W 089°00'0 0.2 1011.4 19.5
2016-Mar-31 11:10N 29°31' W 089°01'2 1.6 1009.9 19.4
2016-Mar-31 10:10N 29°29' W 089°02'1 1.1 1010.2 19.4
2016-Mar-31 09:10N 29°28' W 089°02'2 1.1 1010.3 19.3
2016-Mar-31 07:10N 29°26' W 089°03'0 0.0 1010.3 19.4
2016-Mar-31 06:10N 29°26' W 089°03'11 1.8 1010.9 19.3
2016-Mar-31 00:10N 29°16' W 089°01'3 1.4 1014.2 19.7
2016-Mar-30 22:10N 29°13' W 089°01'1 0.7 1016.7 19.7
2016-Mar-30 20:10N 29°11' W 089°01'1 1.3 1018.2 19.5
2016-Mar-30 19:10N 29°10' W 089°01'3 1.7 1019.7 19.6
2016-Mar-30 17:10N 29°07' W 088°59'0 0.5 1019.8 19.3
2016-Mar-30 16:10N 29°07' W 088°60'0 0.0 1018.9 19.5
2016-Mar-30 15:10N 29°07' W 088°60'3 2.7 1018.2 19.3
2016-Mar-30 14:10N 29°08' W 088°57'2 0.6 1018.3 19.3
2016-Mar-30 10:10N 29°10' W 088°57'1 1.3 1016.1 17.9
2016-Mar-30 09:10N 29°11' W 088°57'2 2.0 1016.3 17.9
2016-Mar-30 08:10N 29°13' W 088°58'7 1.3 1016.5 17.9
2016-Mar-30 03:10N 29°19' W 089°02'1 1.1 1018.3 19.3
2016-Mar-30 02:10N 29°20' W 089°03'4 1.2 1017.9 19.7
2016-Mar-29 23:10N 29°23' W 089°05'0 0.5 1017.4 20.3
2016-Mar-29 22:10N 29°23' W 089°05'1 0.3 1018.0 20.1
2016-Mar-29 20:10N 29°24' W 089°05'1 0.9 1018.6 20.0
2016-Mar-29 19:10N 29°25' W 089°04'3 1.3 1018.3 20.1
2016-Mar-29 17:10N 29°26' W 089°02'1 0.5 1020.2 20.1
2016-Mar-29 14:10N 29°27' W 089°00'1 1.2 1018.4 20.0
2016-Mar-29 13:10N 29°27' W 088°59'2 0.6 1018.4 20.0
2016-Mar-29 10:10N 29°28' W 088°57'1 1.5 1017.3 20.0
2016-Mar-29 09:10N 29°29' W 088°57'2 0.3 1016.9 20.0
2016-Mar-29 03:10N 29°31' W 088°57'0 0.1 1018.0 20.0
2016-Mar-29 02:10N 29°31' W 088°57'0 0.1 1017.9 19.9
2016-Mar-29 01:10N 29°31' W 088°57'0 0.1 1017.8 20.0
2016-Mar-29 00:10N 29°31' W 088°57'0 0.3 1019.5 20.1
2016-Mar-28 23:10N 29°31' W 088°58'0 0.2 1022.9 20.6
2016-Mar-28 22:10N 29°31' W 088°58'1 0.6 1025.5 20.7
2016-Mar-28 21:10N 29°32' W 088°57'0 0.4 1024.9 20.6
2016-Mar-28 20:10N 29°32' W 088°57'0 0.1 1023.7 20.3
2016-Mar-28 19:10N 29°32' W 088°57'2 0.6 1022.3 20.0
2016-Mar-28 16:10N 29°33' W 088°55'1 0.5 1020.2 19.4
2016-Mar-28 15:10N 29°34' W 088°55'1 1.0 1020.0 19.4
2016-Mar-28 14:10N 29°35' W 088°55'0 0.0 1019.6 19.4
2016-Mar-28 13:10N 29°35' W 088°55'1 0.3 1018.8 19.3
2016-Mar-28 11:10N 29°35' W 088°55'1 0.7 1017.4 19.3
2016-Mar-28 10:10N 29°36' W 088°56'1 0.3 1016.8 19.3
2016-Mar-28 08:10N 29°36' W 088°56'2 1.7 1016.2 19.3
2016-Mar-28 07:10N 29°38' W 088°55'0 0.1 1016.5 19.1
2016-Mar-28 03:10N 29°37' W 088°55'0 0.3 1017.1 19.3
2016-Mar-28 02:10N 29°37' W 088°55'1 0.6 1016.8 19.4
2016-Mar-28 01:10N 29°37' W 088°54'0 0.2 1016.6 19.3
2016-Mar-28 00:10N 29°37' W 088°55'0 0.4 1016.9 19.4
2016-Mar-27 23:10N 29°37' W 088°54'2 0.8 1016.4 19.4
2016-Mar-27 20:10N 29°37' W 088°52'3 2.7 1016.3 19.3
2016-Mar-27 19:10N 29°38' W 088°49'0 0.1 1016.8 19.3
2016-Mar-27 16:10N 29°39' W 088°49'2 0.4 1018.4 19.1
2016-Mar-27 11:10N 29°38' W 088°51'0 0.2 1017.9 19.3
2016-Mar-27 10:10N 29°38' W 088°51'5 1.6 1017.5 19.3
2016-Mar-27 07:10N 29°34' W 088°48'1 0.3 1015.9 19.3
2016-Mar-27 03:10N 29°34' W 088°47'1 0.8 1018.2 19.3
2016-Mar-27 02:10N 29°33' W 088°46'1 0.3 1017.1 19.3
2016-Mar-27 00:10N 29°33' W 088°45'1 0.9 1016.0 19.3
2016-Mar-26 23:10N 29°33' W 088°44'1 0.5 1014.4 19.3
2016-Mar-26 21:10N 29°34' W 088°43'2 1.6 1013.9 19.5
2016-Mar-26 20:10N 29°35' W 088°42'0 0.1 1014.4 19.5
2016-Mar-26 19:10N 29°35' W 088°42'2 2.2 1016.1 19.7
2016-Mar-26 18:10N 29°34' W 088°39'1 0.9 1016.4 19.8
2016-Mar-26 17:10N 29°34' W 088°38'1 1.1 1016.7 19.6
2016-Mar-26 16:10N 29°35' W 088°38'3 2.8 1017.5 19.5
2016-Mar-26 15:10N 29°36' W 088°35'0 0.0 1015.6 19.5
2016-Mar-26 14:10N 29°36' W 088°35'0 0.2 1014.8 19.4
2016-Mar-26 13:10N 29°37' W 088°35'1 1.1 1014.5 19.4
2016-Mar-26 12:10N 29°38' W 088°34'1 0.7 1014.7 19.3
2016-Mar-26 10:10N 29°39' W 088°34'2 1.2 1012.8 19.1
2016-Mar-26 08:10N 29°37' W 088°36'1 0.1 1013.5 19.4
2016-Mar-26 02:10N 29°37' W 088°35'1 1.3 1012.3 19.5
2016-Mar-26 01:10N 29°36' W 088°35'0 0.0 1012.7 19.6
2016-Mar-26 00:10N 29°36' W 088°35'0 0.4 1013.6 19.6
2016-Mar-25 23:10N 29°35' W 088°35'3 1.3 1013.4 19.6
2016-Mar-25 21:10N 29°35' W 088°32'   1012.5 19.6
Track history (hours):
 
Tides and Currents Weather Stations Pressure Air Temp Water Temp Dewpoint Dewpoint Depression Visibility Wind Speed Wind Dir Waves Ship Positions

Drifting buoy 42514

Last reported at 2016-Apr-04 19:10 UTC. Time now 2016-Dec-10 03:14 UTC.
Position N 29°53' W 088°50'.
Warning: this ship's position is months out of date.

Barometer 1032.0 mb
Water temperature 22.7 ° C

Date/timePositionNaut miles runAvg speedWind from/ knotsBaromVisibWave heightAir tempDewpointWater temp
2016-Apr-04 19:10N 29°53' W 088°50'0 0.1 1032.0 22.7
2016-Apr-04 18:10N 29°53' W 088°50'0 0.1 1029.2 21.9
2016-Apr-04 17:10N 29°53' W 088°50'0 0.0 1026.5 21.3
2016-Apr-04 15:10N 29°53' W 088°50'0 0.1 1023.8 21.1
2016-Apr-04 13:10N 29°53' W 088°49'0 0.2 1023.0 19.4
2016-Apr-04 12:10N 29°53' W 088°50'0 0.1 1022.2 16.5
2016-Apr-04 11:10N 29°53' W 088°50'0 0.1 1021.6 15.5
2016-Apr-04 08:10N 29°53' W 088°49'0 0.0 1021.2 15.7
2016-Apr-04 03:10N 29°53' W 088°49'0 0.1 1021.6 16.6
2016-Apr-04 01:10N 29°53' W 088°50'0 0.2 1021.4 17.0
2016-Apr-04 00:10N 29°53' W 088°50'0 0.1 1023.8 18.4
2016-Apr-03 23:10N 29°53' W 088°50'0 0.1 1027.2 20.1
2016-Apr-03 21:10N 29°53' W 088°50'0 0.2 1037.0 20.9
2016-Apr-03 19:10N 29°53' W 088°50'0 0.0 1037.5 20.8
2016-Apr-03 15:10N 29°53' W 088°50'0 0.1 1023.9 20.1
2016-Apr-03 14:10N 29°53' W 088°50'0 0.0 1023.1 19.4
2016-Apr-03 13:10N 29°53' W 088°50'0 0.2 1022.7 18.1
2016-Apr-03 12:10N 29°53' W 088°49'0 0.2 1022.4 13.7
2016-Apr-03 11:10N 29°53' W 088°50'0 0.0 1022.0 12.9
2016-Apr-03 10:10N 29°53' W 088°50'0 0.0 1021.4 12.4
2016-Apr-03 08:10N 29°53' W 088°50'0 0.0 1021.2 13.0
2016-Apr-03 03:10N 29°53' W 088°50'0 0.2 1020.4 16.0
2016-Apr-03 02:10N 29°53' W 088°50'0 0.1 1020.1 16.6
2016-Apr-03 00:10N 29°53' W 088°49'1 0.6 1022.3 18.4
2016-Apr-02 23:10N 29°53' W 088°50'1 0.5 1024.5 19.5
2016-Apr-02 22:10N 29°53' W 088°49'0 0.2 1025.1 18.3
2016-Apr-02 20:10N 29°53' W 088°49'0 0.2 1025.3 20.2
2016-Apr-02 18:10N 29°53' W 088°50'0 0.1 1024.7 18.9
2016-Apr-02 16:10N 29°53' W 088°50'0 0.0 1021.7 17.9
2016-Apr-02 15:10N 29°53' W 088°50'0 0.0 1020.2 17.7
2016-Apr-02 14:10N 29°53' W 088°50'0 0.2 1019.9 16.6
2016-Apr-02 13:10N 29°53' W 088°50'0 0.2 1018.1 15.0
2016-Apr-02 12:10N 29°53' W 088°49'0 0.1 1016.9 13.2
2016-Apr-02 11:10N 29°53' W 088°50'0 0.0 1015.5 12.9
2016-Apr-02 10:10N 29°53' W 088°50'0 0.1 1013.7 12.1
2016-Apr-02 08:10N 29°53' W 088°50'0 0.0 1012.6 15.3
2016-Apr-02 02:10N 29°53' W 088°50'0 0.0 1010.5 16.0
2016-Apr-02 00:10N 29°53' W 088°50'0 0.1 1008.5 17.8
2016-Apr-01 23:10N 29°53' W 088°50'1 0.4 1010.3 19.8
2016-Apr-01 20:10N 29°52' W 088°49'1 1.0 1008.4 20.2
2016-Apr-01 19:10N 29°52' W 088°48'3 1.1 1009.6 20.5
2016-Apr-01 16:10N 29°48' W 088°48'1 0.6 1010.9 20.3
2016-Apr-01 14:10N 29°47' W 088°48'0 0.2 1009.6 20.3
2016-Apr-01 13:10N 29°47' W 088°48'1 0.8 1009.0 20.3
2016-Apr-01 12:10N 29°47' W 088°47'1 0.6 1008.8 20.3
2016-Apr-01 11:10N 29°46' W 088°48'1 0.4 1009.2 20.3
2016-Apr-01 08:10N 29°45' W 088°48'2 0.6 1009.3 20.3
2016-Apr-01 04:10N 29°43' W 088°50'0 0.0 1009.8 20.7
2016-Apr-01 03:10N 29°43' W 088°50'1 0.5 1009.0 20.7
2016-Apr-01 02:10N 29°43' W 088°50'1 0.7 1009.0 21.0
2016-Apr-01 01:10N 29°43' W 088°50'3 1.3 1008.3 21.3
2016-Mar-31 23:10N 29°41' W 088°53'1 1.1 1010.0 21.5
2016-Mar-31 22:10N 29°41' W 088°54'2 0.8 1012.4 21.3
2016-Mar-31 20:10N 29°40' W 088°55'2 2.4 1014.7 21.3
2016-Mar-31 19:10N 29°38' W 088°57'3 1.1 1015.0 21.0
2016-Mar-31 16:10N 29°35' W 088°58'1 0.8 1014.4 20.2
2016-Mar-31 15:10N 29°34' W 088°58'2 1.9 1013.8 20.0
2016-Mar-31 14:10N 29°32' W 088°59'1 1.1 1012.7 19.7
2016-Mar-31 13:10N 29°31' W 088°60'1 0.7 1011.5 19.5
2016-Mar-31 12:10N 29°31' W 089°00'0 0.2 1011.4 19.5
2016-Mar-31 11:10N 29°31' W 089°01'2 1.6 1009.9 19.4
2016-Mar-31 10:10N 29°29' W 089°02'1 1.1 1010.2 19.4
2016-Mar-31 09:10N 29°28' W 089°02'2 1.1 1010.3 19.3
2016-Mar-31 07:10N 29°26' W 089°03'0 0.0 1010.3 19.4
2016-Mar-31 06:10N 29°26' W 089°03'11 1.8 1010.9 19.3
2016-Mar-31 00:10N 29°16' W 089°01'3 1.4 1014.2 19.7
2016-Mar-30 22:10N 29°13' W 089°01'1 0.7 1016.7 19.7
2016-Mar-30 20:10N 29°11' W 089°01'1 1.3 1018.2 19.5
2016-Mar-30 19:10N 29°10' W 089°01'3 1.7 1019.7 19.6
2016-Mar-30 17:10N 29°07' W 088°59'0 0.5 1019.8 19.3
2016-Mar-30 16:10N 29°07' W 088°60'0 0.0 1018.9 19.5
2016-Mar-30 15:10N 29°07' W 088°60'3 2.7 1018.2 19.3
2016-Mar-30 14:10N 29°08' W 088°57'2 0.6 1018.3 19.3
2016-Mar-30 10:10N 29°10' W 088°57'1 1.3 1016.1 17.9
2016-Mar-30 09:10N 29°11' W 088°57'2 2.0 1016.3 17.9
2016-Mar-30 08:10N 29°13' W 088°58'7 1.3 1016.5 17.9
2016-Mar-30 03:10N 29°19' W 089°02'1 1.1 1018.3 19.3
2016-Mar-30 02:10N 29°20' W 089°03'4 1.2 1017.9 19.7
2016-Mar-29 23:10N 29°23' W 089°05'0 0.5 1017.4 20.3
2016-Mar-29 22:10N 29°23' W 089°05'1 0.3 1018.0 20.1
2016-Mar-29 20:10N 29°24' W 089°05'1 0.9 1018.6 20.0
2016-Mar-29 19:10N 29°25' W 089°04'3 1.3 1018.3 20.1
2016-Mar-29 17:10N 29°26' W 089°02'1 0.5 1020.2 20.1
2016-Mar-29 14:10N 29°27' W 089°00'1 1.2 1018.4 20.0
2016-Mar-29 13:10N 29°27' W 088°59'2 0.6 1018.4 20.0
2016-Mar-29 10:10N 29°28' W 088°57'1 1.5 1017.3 20.0
2016-Mar-29 09:10N 29°29' W 088°57'2 0.3 1016.9 20.0
2016-Mar-29 03:10N 29°31' W 088°57'0 0.1 1018.0 20.0
2016-Mar-29 02:10N 29°31' W 088°57'0 0.1 1017.9 19.9
2016-Mar-29 01:10N 29°31' W 088°57'0 0.1 1017.8 20.0
2016-Mar-29 00:10N 29°31' W 088°57'0 0.3 1019.5 20.1
2016-Mar-28 23:10N 29°31' W 088°58'0 0.2 1022.9 20.6
2016-Mar-28 22:10N 29°31' W 088°58'1 0.6 1025.5 20.7
2016-Mar-28 21:10N 29°32' W 088°57'0 0.4 1024.9 20.6
2016-Mar-28 20:10N 29°32' W 088°57'0 0.1 1023.7 20.3
2016-Mar-28 19:10N 29°32' W 088°57'2 0.6 1022.3 20.0
2016-Mar-28 16:10N 29°33' W 088°55'1 0.5 1020.2 19.4
2016-Mar-28 15:10N 29°34' W 088°55'1 1.0 1020.0 19.4
2016-Mar-28 14:10N 29°35' W 088°55'0 0.0 1019.6 19.4
2016-Mar-28 13:10N 29°35' W 088°55'1 0.3 1018.8 19.3
2016-Mar-28 11:10N 29°35' W 088°55'1 0.7 1017.4 19.3
2016-Mar-28 10:10N 29°36' W 088°56'1 0.3 1016.8 19.3
2016-Mar-28 08:10N 29°36' W 088°56'2 1.7 1016.2 19.3
2016-Mar-28 07:10N 29°38' W 088°55'0 0.1 1016.5 19.1
2016-Mar-28 03:10N 29°37' W 088°55'0 0.3 1017.1 19.3
2016-Mar-28 02:10N 29°37' W 088°55'1 0.6 1016.8 19.4
2016-Mar-28 01:10N 29°37' W 088°54'0 0.2 1016.6 19.3
2016-Mar-28 00:10N 29°37' W 088°55'0 0.4 1016.9 19.4
2016-Mar-27 23:10N 29°37' W 088°54'2 0.8 1016.4 19.4
2016-Mar-27 20:10N 29°37' W 088°52'3 2.7 1016.3 19.3
2016-Mar-27 19:10N 29°38' W 088°49'0 0.1 1016.8 19.3
2016-Mar-27 16:10N 29°39' W 088°49'2 0.4 1018.4 19.1
2016-Mar-27 11:10N 29°38' W 088°51'0 0.2 1017.9 19.3
2016-Mar-27 10:10N 29°38' W 088°51'5 1.6 1017.5 19.3
2016-Mar-27 07:10N 29°34' W 088°48'1 0.3 1015.9 19.3
2016-Mar-27 03:10N 29°34' W 088°47'1 0.8 1018.2 19.3
2016-Mar-27 02:10N 29°33' W 088°46'1 0.3 1017.1 19.3
2016-Mar-27 00:10N 29°33' W 088°45'1 0.9 1016.0 19.3
2016-Mar-26 23:10N 29°33' W 088°44'1 0.5 1014.4 19.3
2016-Mar-26 21:10N 29°34' W 088°43'2 1.6 1013.9 19.5
2016-Mar-26 20:10N 29°35' W 088°42'0 0.1 1014.4 19.5
2016-Mar-26 19:10N 29°35' W 088°42'2 2.2 1016.1 19.7
2016-Mar-26 18:10N 29°34' W 088°39'1 0.9 1016.4 19.8
2016-Mar-26 17:10N 29°34' W 088°38'1 1.1 1016.7 19.6
2016-Mar-26 16:10N 29°35' W 088°38'3 2.8 1017.5 19.5
2016-Mar-26 15:10N 29°36' W 088°35'0 0.0 1015.6 19.5
2016-Mar-26 14:10N 29°36' W 088°35'0 0.2 1014.8 19.4
2016-Mar-26 13:10N 29°37' W 088°35'1 1.1 1014.5 19.4
2016-Mar-26 12:10N 29°38' W 088°34'1 0.7 1014.7 19.3
2016-Mar-26 10:10N 29°39' W 088°34'2 1.2 1012.8 19.1
2016-Mar-26 08:10N 29°37' W 088°36'1 0.1 1013.5 19.4
2016-Mar-26 02:10N 29°37' W 088°35'1 1.3 1012.3 19.5
2016-Mar-26 01:10N 29°36' W 088°35'0 0.0 1012.7 19.6
2016-Mar-26 00:10N 29°36' W 088°35'0 0.4 1013.6 19.6
2016-Mar-25 23:10N 29°35' W 088°35'3 1.3 1013.4 19.6
2016-Mar-25 21:10N 29°35' W 088°32'   1012.5 19.6

Dump ship's entire track history